Lindsay, TX

10:37 AM CST on January 19, 2017 (GMT -0600)
Gainesville Municipal

Weather History for KGLE - January, 2012

Change the Weather History Date:

Sunday, January 22, 2012

  Actual Average (KDTO) Record (KDTO)
Temperature  
Mean Temperature 55 °F -  
Max Temperature 73 °F 54 °F 81 °F (2009)
Min Temperature 37 °F 32 °F 24 °F (2001)
Degree Days  
Heating Degree Days 10    
Growing Degree Days 5 (Base 50)    
Moisture  
Dew Point 39 °F    
Average Humidity 71    
Maximum Humidity 100    
Minimum Humidity 14    
Precipitation  
Precipitation 0.00 in - - ()
Sea Level Pressure  
Sea Level Pressure 29.70 in    
Wind  
Wind Speed 13 mph (South)    
Max Wind Speed 36 mph    
Max Gust Speed 44 mph    
Visibility 4 miles    
Events Fog    
Averages and records for this station are not official NWS values.
T = Trace of Precipitation, MM = Missing Value Source: NWS Daily Summary

Daily Weather History Graph

Daily Weather History Graph

Search for Another Location

Airport or City:

Trip Planner

Search our weather history database for the weather conditions in past years. The results will help you decide how hot, cold, wet, or windy it might be!

Date:

Astronomy

Jan. 22, 2012 Rise Set
Actual Time 7:31 AM CST 5:49 PM CST
Civil Twilight 7:04 AM CST 6:16 PM CST
Nautical Twilight 6:34 AM CST 6:46 PM CST
Astronomical Twilight 6:04 AM CST 7:16 PM CST
Moon 6:48 AM CST (1/22) 5:32 PM CST (1/22)
Length of Visible Light 11h 12m
Length of Day
10h 18m
Waning Crescent, 0% of the Moon is Illuminated
Jan 22
Waning Crescent
Jan 23
New
Jan 30
First Quarter
Feb 7
Full
Feb 14
Last Quarter

Hourly Weather History & Observations

Time (CST) Temp. Windchill Dew Point Humidity Pressure Visibility Wind Dir Wind Speed Gust Speed Precip Events Conditions
12:15 AM 37.4 °F 30.8 °F 35.6 °F 93% 29.82 in 7.0 mi SSE 9.2 mph - N/A   Clear
12:35 AM 37.4 °F 31.4 °F 35.6 °F 93% 29.82 in 5.0 mi SE 8.1 mph - N/A   Clear
12:55 AM 39.2 °F 32.5 °F 37.4 °F 93% 29.81 in 5.0 mi SE 10.4 mph - N/A   Clear
1:15 AM 39.2 °F 32.0 °F 37.4 °F 93% 29.80 in 5.0 mi SSE 11.5 mph - N/A   Clear
1:35 AM 39.2 °F 32.0 °F 37.4 °F 93% 29.80 in 4.0 mi SSE 11.5 mph - N/A   Clear
1:55 AM 39.2 °F 32.5 °F 37.4 °F 93% 29.80 in 4.0 mi SE 10.4 mph - N/A   Clear
2:15 AM 39.2 °F 33.0 °F 37.4 °F 93% 29.80 in 3.0 mi SSE 9.2 mph - N/A   Clear
2:35 AM 39.2 °F 32.5 °F 37.4 °F 93% 29.79 in 2.5 mi SE 10.4 mph - N/A   Mist
2:55 AM 37.4 °F 30.3 °F 35.6 °F 93% 29.79 in 2.0 mi SSE 10.4 mph - N/A   Mist
3:15 AM 37.4 °F 31.4 °F 35.6 °F 93% 29.79 in 1.8 mi SSE 8.1 mph - N/A   Mist
3:35 AM 37.4 °F 30.3 °F 35.6 °F 93% 29.78 in 1.8 mi SSE 10.4 mph - N/A   Mist
3:55 AM 37.4 °F 31.4 °F 37.4 °F 100% 29.78 in 2.0 mi SSE 8.1 mph - N/A   Scattered Clouds
4:15 AM 37.4 °F 31.4 °F 37.4 °F 100% 29.76 in 2.0 mi SE 8.1 mph - N/A   Mist
4:35 AM 39.2 °F 32.0 °F 39.2 °F 100% 29.74 in 3.0 mi SE 11.5 mph - N/A   Clear
4:55 AM 41.0 °F 34.3 °F 39.2 °F 93% 29.73 in 3.0 mi SE 11.5 mph - N/A   Mostly Cloudy
5:15 AM 41.0 °F 34.3 °F 41.0 °F 100% 29.73 in 3.0 mi SSE 11.5 mph - N/A   Overcast
5:35 AM 42.8 °F 36.2 °F 41.0 °F 93% 29.72 in 3.0 mi SSE 12.7 mph - N/A   Overcast
5:55 AM 44.6 °F 38.4 °F 42.8 °F 93% 29.71 in 3.0 mi SSE 12.7 mph 17.3 mph N/A   Overcast
6:15 AM 44.6 °F 39.7 °F 42.8 °F 93% 29.72 in 3.0 mi SSE 9.2 mph - N/A   Overcast
6:35 AM 46.4 °F 40.1 °F 44.6 °F 93% 29.71 in 3.0 mi SSE 15.0 mph 21.9 mph N/A   Overcast
6:55 AM 46.4 °F 40.4 °F 44.6 °F 93% 29.71 in 3.0 mi SSE 13.8 mph - N/A   Overcast
7:15 AM 46.4 °F 41.1 °F 44.6 °F 93% 29.71 in 2.5 mi SSE 11.5 mph - N/A   Overcast
7:35 AM 46.4 °F 42.4 °F 44.6 °F 93% 29.70 in 1.0 mi SSE 8.1 mph - N/A   Overcast
7:55 AM 46.4 °F 41.9 °F 44.6 °F 93% 29.69 in 0.2 mi South 9.2 mph - N/A Fog Fog
8:15 AM 46.4 °F 41.9 °F 46.4 °F 100% 29.69 in 0.2 mi South 9.2 mph - N/A Fog Fog
8:35 AM 51.8 °F - 51.8 °F 100% 29.69 in 0.5 mi South 13.8 mph 18.4 mph N/A Fog Fog
8:55 AM 51.8 °F - 51.8 °F 100% 29.69 in 0.8 mi South 13.8 mph 20.7 mph N/A   Overcast
9:15 AM 51.8 °F - 51.8 °F 100% 29.70 in 0.8 mi SSE 16.1 mph - N/A   Overcast
9:35 AM 51.8 °F - 51.8 °F 100% 29.70 in 1.0 mi South 17.3 mph - N/A   Overcast
9:55 AM 51.8 °F - 51.8 °F 100% 29.70 in 1.5 mi South 15.0 mph - N/A   Overcast
10:15 AM 53.6 °F - 53.6 °F 100% 29.70 in 2.0 mi SSE 18.4 mph - N/A   Overcast
10:35 AM 53.6 °F - 53.6 °F 100% 29.69 in 2.5 mi South 16.1 mph - N/A   Overcast
10:55 AM 55.4 °F - 53.6 °F 94% 29.69 in 4.0 mi South 20.7 mph 24.2 mph N/A   Overcast
11:15 AM 55.4 °F - 53.6 °F 94% 29.68 in 4.0 mi South 16.1 mph 25.3 mph N/A   Overcast
11:35 AM 59.0 °F - 55.4 °F 88% 29.68 in 5.0 mi South 15.0 mph 23.0 mph N/A   Mostly Cloudy
11:55 AM 59.0 °F - 53.6 °F 82% 29.67 in 5.0 mi South 12.7 mph - N/A   Haze
12:15 PM 66.2 °F - 55.4 °F 68% 29.65 in 10.0 mi SSW 16.1 mph 21.9 mph N/A   Clear
12:35 PM 68.0 °F - 50.0 °F 52% 29.63 in 10.0 mi SSW 13.8 mph 23.0 mph N/A   Clear
12:55 PM 71.6 °F - 46.4 °F 41% 29.61 in 10.0 mi SSW 20.7 mph 26.5 mph N/A   Clear
1:15 PM 71.6 °F - 41.0 °F 33% 29.60 in 10.0 mi SW 13.8 mph 20.7 mph N/A   Clear
1:35 PM 71.6 °F - 37.4 °F 29% 29.61 in 10.0 mi WSW 24.2 mph 29.9 mph N/A   Clear
1:55 PM 71.6 °F - 35.6 °F 27% 29.60 in 10.0 mi SW 17.3 mph 32.2 mph N/A   Clear
2:15 PM 71.6 °F - 30.2 °F 22% 29.61 in 10.0 mi SW 35.7 mph 40.3 mph N/A   Clear
2:35 PM 73.4 °F - 30.2 °F 20% 29.61 in 10.0 mi WSW 28.8 mph 43.7 mph N/A   Clear
2:55 PM 71.6 °F - 24.8 °F 17% 29.60 in 10.0 mi SW 21.9 mph 35.7 mph N/A   Clear
3:15 PM 71.6 °F - 23.0 °F 16% 29.59 in 10.0 mi SW 21.9 mph 38.0 mph N/A   Clear
3:35 PM 71.6 °F - 23.0 °F 16% 29.61 in 10.0 mi SW 20.7 mph 35.7 mph N/A   Clear
3:55 PM 71.6 °F - 19.4 °F 14% 29.62 in 10.0 mi SW 24.2 mph 38.0 mph N/A   Scattered Clouds
4:15 PM 71.6 °F - 21.2 °F 15% 29.64 in 7.0 mi SW 25.3 mph 31.1 mph N/A   Overcast
4:35 PM 71.6 °F - 21.2 °F 15% 29.65 in 4.0 mi WSW 27.6 mph 36.8 mph N/A   Haze
4:55 PM 71.6 °F - 21.2 °F 15% 29.66 in 2.5 mi WSW 23.0 mph 32.2 mph N/A   Haze
5:15 PM 69.8 °F - 19.4 °F 15% 29.67 in 2.0 mi WSW 20.7 mph 31.1 mph N/A   Haze
5:35 PM 68.0 °F - 21.2 °F 17% 29.67 in 2.0 mi SW 15.0 mph - N/A   Haze
5:55 PM 66.2 °F - 21.2 °F 18% 29.68 in 3.0 mi SW 13.8 mph - N/A   Haze
6:15 PM 68.0 °F - 24.8 °F 20% 29.71 in 3.0 mi WSW 26.5 mph 38.0 mph N/A   Haze
6:35 PM 64.4 °F - 37.4 °F 37% 29.74 in 4.0 mi West 18.4 mph 35.7 mph N/A   Haze
6:55 PM 59.0 °F - 37.4 °F 45% 29.76 in 7.0 mi West 17.3 mph 27.6 mph N/A   Overcast
7:15 PM 55.4 °F - 39.2 °F 54% 29.79 in 7.0 mi West 24.2 mph 32.2 mph N/A   Overcast
7:35 PM 55.4 °F - 41.0 °F 58% 29.81 in 10.0 mi West 24.2 mph 36.8 mph N/A   Scattered Clouds
7:55 PM 53.6 °F - 37.4 °F 54% 29.82 in 10.0 mi West 25.3 mph 34.5 mph N/A   Clear
8:15 PM 53.6 °F - 39.2 °F 58% 29.85 in 10.0 mi West 26.5 mph 38.0 mph N/A   Clear
8:35 PM 51.8 °F - 35.6 °F 54% 29.87 in 10.0 mi WNW 24.2 mph 40.3 mph N/A   Clear
8:55 PM 51.8 °F - 37.4 °F 58% 29.89 in 10.0 mi WNW 19.6 mph 31.1 mph N/A   Clear
9:15 PM 51.8 °F - 37.4 °F 58% 29.90 in 10.0 mi WNW 20.7 mph 32.2 mph N/A   Clear
9:35 PM 51.8 °F - 37.4 °F 58% 29.91 in 10.0 mi WNW 21.9 mph 33.4 mph N/A   Clear
9:55 PM 51.8 °F - 37.4 °F 58% 29.92 in 10.0 mi WNW 23.0 mph 31.1 mph N/A   Clear
10:15 PM 50.0 °F - 35.6 °F 58% 29.94 in 10.0 mi WNW 20.7 mph 32.2 mph N/A   Clear
10:35 PM 50.0 °F - 35.6 °F 58% 29.95 in 10.0 mi NW 17.3 mph 23.0 mph N/A   Clear
10:55 PM 50.0 °F - 33.8 °F 54% 29.96 in 10.0 mi NW 17.3 mph 26.5 mph N/A   Clear
11:15 PM 46.4 °F 40.1 °F 33.8 °F 62% 29.96 in 10.0 mi WNW 15.0 mph 23.0 mph N/A   Clear
11:35 PM 46.4 °F 41.1 °F 33.8 °F 62% 29.96 in 10.0 mi WNW 11.5 mph - N/A   Clear
11:55 PM 46.4 °F 41.9 °F 33.8 °F 62% 29.97 in 10.0 mi NW 9.2 mph - N/A   Clear